sensor_id;sensor_type;location;lat;lon;timestamp;P1;durP1;ratioP1;P2;durP2;ratioP2
3131;SDS011;62090;52.330;9.104;2023-04-24T00:01:51;1.90;;;1.30;;
3131;SDS011;62090;52.330;9.104;2023-04-24T00:04:21;3.00;;;1.17;;
3131;SDS011;62090;52.330;9.104;2023-04-24T00:06:55;1.13;;;1.00;;
3131;SDS011;62090;52.330;9.104;2023-04-24T00:09:27;4.60;;;1.20;;
3131;SDS011;62090;52.330;9.104;2023-04-24T00:11:57;1.83;;;1.20;;
3131;SDS011;62090;52.330;9.104;2023-04-24T00:14:29;2.47;;;1.03;;
3131;SDS011;62090;52.330;9.104;2023-04-24T00:16:58;1.13;;;0.90;;
3131;SDS011;62090;52.330;9.104;2023-04-24T00:19:29;1.63;;;1.00;;
3131;SDS011;62090;52.330;9.104;2023-04-24T00:22:01;1.43;;;0.93;;
3131;SDS011;62090;52.330;9.104;2023-04-24T00:24:31;1.03;;;0.93;;
3131;SDS011;62090;52.330;9.104;2023-04-24T00:27:01;1.30;;;1.00;;
3131;SDS011;62090;52.330;9.104;2023-04-24T00:29:31;1.23;;;0.90;;
3131;SDS011;62090;52.330;9.104;2023-04-24T00:32:01;0.80;;;0.80;;
3131;SDS011;62090;52.330;9.104;2023-04-24T00:34:32;2.03;;;1.20;;
3131;SDS011;62090;52.330;9.104;2023-04-24T00:37:04;1.00;;;0.70;;
3131;SDS011;62090;52.330;9.104;2023-04-24T00:39:34;1.00;;;0.70;;
3131;SDS011;62090;52.330;9.104;2023-04-24T00:42:03;2.10;;;1.20;;
3131;SDS011;62090;52.330;9.104;2023-04-24T00:44:33;0.90;;;0.80;;
3131;SDS011;62090;52.330;9.104;2023-04-24T00:47:03;7.23;;;0.60;;
3131;SDS011;62090;52.330;9.104;2023-04-24T00:49:33;1.83;;;0.90;;
3131;SDS011;62090;52.330;9.104;2023-04-24T00:52:05;1.23;;;0.70;;
3131;SDS011;62090;52.330;9.104;2023-04-24T00:54:36;1.13;;;0.60;;
3131;SDS011;62090;52.330;9.104;2023-04-24T00:57:06;1.20;;;0.70;;
3131;SDS011;62090;52.330;9.104;2023-04-24T00:59:36;1.40;;;0.50;;
3131;SDS011;62090;52.330;9.104;2023-04-24T01:02:08;0.70;;;0.57;;
3131;SDS011;62090;52.330;9.104;2023-04-24T01:04:39;0.80;;;0.60;;
3131;SDS011;62090;52.330;9.104;2023-04-24T01:07:11;1.43;;;0.80;;
3131;SDS011;62090;52.330;9.104;2023-04-24T01:09:41;1.20;;;0.60;;
3131;SDS011;62090;52.330;9.104;2023-04-24T01:12:11;1.50;;;0.63;;
3131;SDS011;62090;52.330;9.104;2023-04-24T01:14:43;1.60;;;0.80;;
3131;SDS011;62090;52.330;9.104;2023-04-24T01:17:14;3.60;;;0.77;;
3131;SDS011;62090;52.330;9.104;2023-04-24T01:19:46;4.10;;;0.70;;
3131;SDS011;62090;52.330;9.104;2023-04-24T01:22:19;0.80;;;0.50;;
3131;SDS011;62090;52.330;9.104;2023-04-24T01:24:49;0.83;;;0.57;;
3131;SDS011;62090;52.330;9.104;2023-04-24T01:27:19;1.00;;;0.60;;
3131;SDS011;62090;52.330;9.104;2023-04-24T01:29:49;2.40;;;0.70;;
3131;SDS011;62090;52.330;9.104;2023-04-24T01:32:20;0.90;;;0.60;;
3131;SDS011;62090;52.330;9.104;2023-04-24T01:34:50;1.67;;;0.57;;
3131;SDS011;62090;52.330;9.104;2023-04-24T01:37:23;1.40;;;0.60;;
3131;SDS011;62090;52.330;9.104;2023-04-24T01:39:53;1.20;;;0.70;;
3131;SDS011;62090;52.330;9.104;2023-04-24T01:42:25;0.70;;;0.60;;
3131;SDS011;62090;52.330;9.104;2023-04-24T01:44:55;1.10;;;0.60;;
3131;SDS011;62090;52.330;9.104;2023-04-24T01:47:26;1.20;;;0.67;;
3131;SDS011;62090;52.330;9.104;2023-04-24T01:49:56;1.53;;;0.70;;
3131;SDS011;62090;52.330;9.104;2023-04-24T01:52:28;2.27;;;1.00;;
3131;SDS011;62090;52.330;9.104;2023-04-24T01:55:00;0.90;;;0.80;;
3131;SDS011;62090;52.330;9.104;2023-04-24T01:57:30;0.70;;;0.60;;
3131;SDS011;62090;52.330;9.104;2023-04-24T02:00:00;1.03;;;0.83;;
3131;SDS011;62090;52.330;9.104;2023-04-24T02:02:38;1.13;;;0.90;;
3131;SDS011;62090;52.330;9.104;2023-04-24T02:05:13;2.70;;;0.90;;
3131;SDS011;62090;52.330;9.104;2023-04-24T02:07:45;1.00;;;0.77;;
3131;SDS011;62090;52.330;9.104;2023-04-24T02:10:15;0.80;;;0.70;;
3131;SDS011;62090;52.330;9.104;2023-04-24T02:12:45;2.27;;;0.80;;
3131;SDS011;62090;52.330;9.104;2023-04-24T02:15:15;0.90;;;0.80;;
3131;SDS011;62090;52.330;9.104;2023-04-24T02:17:44;1.67;;;1.00;;
3131;SDS011;62090;52.330;9.104;2023-04-24T02:20:14;4.03;;;1.20;;
3131;SDS011;62090;52.330;9.104;2023-04-24T02:22:46;1.20;;;0.90;;
3131;SDS011;62090;52.330;9.104;2023-04-24T02:25:17;1.80;;;1.00;;
3131;SDS011;62090;52.330;9.104;2023-04-24T02:27:47;2.87;;;1.00;;
3131;SDS011;62090;52.330;9.104;2023-04-24T02:30:16;2.30;;;1.00;;
3131;SDS011;62090;52.330;9.104;2023-04-24T02:32:46;0.90;;;0.70;;
3131;SDS011;62090;52.330;9.104;2023-04-24T02:35:16;0.80;;;0.70;;
3131;SDS011;62090;52.330;9.104;2023-04-24T02:37:48;1.10;;;0.70;;
3131;SDS011;62090;52.330;9.104;2023-04-24T02:40:18;1.13;;;0.67;;
3131;SDS011;62090;52.330;9.104;2023-04-24T02:42:48;2.13;;;0.77;;
3131;SDS011;62090;52.330;9.104;2023-04-24T02:45:18;1.30;;;0.80;;
3131;SDS011;62090;52.330;9.104;2023-04-24T02:47:48;3.00;;;1.00;;
3131;SDS011;62090;52.330;9.104;2023-04-24T02:50:17;1.00;;;0.80;;
3131;SDS011;62090;52.330;9.104;2023-04-24T02:52:50;2.03;;;1.03;;
3131;SDS011;62090;52.330;9.104;2023-04-24T02:55:20;2.20;;;0.90;;
3131;SDS011;62090;52.330;9.104;2023-04-24T02:57:49;1.40;;;1.27;;
3131;SDS011;62090;52.330;9.104;2023-04-24T03:00:19;2.33;;;1.20;;
3131;SDS011;62090;52.330;9.104;2023-04-24T03:02:49;1.97;;;1.20;;
3131;SDS011;62090;52.330;9.104;2023-04-24T03:05:20;1.80;;;1.10;;
3131;SDS011;62090;52.330;9.104;2023-04-24T03:07:52;1.50;;;1.17;;
3131;SDS011;62090;52.330;9.104;2023-04-24T03:10:22;1.93;;;1.13;;
3131;SDS011;62090;52.330;9.104;2023-04-24T03:12:52;4.60;;;2.10;;
3131;SDS011;62090;52.330;9.104;2023-04-24T03:15:21;2.80;;;1.40;;
3131;SDS011;62090;52.330;9.104;2023-04-24T03:17:51;3.43;;;1.13;;
3131;SDS011;62090;52.330;9.104;2023-04-24T03:20:22;1.30;;;1.10;;
3131;SDS011;62090;52.330;9.104;2023-04-24T03:22:57;3.30;;;1.37;;
3131;SDS011;62090;52.330;9.104;2023-04-24T03:25:27;1.43;;;1.33;;
3131;SDS011;62090;52.330;9.104;2023-04-24T03:27:57;2.20;;;1.37;;
3131;SDS011;62090;52.330;9.104;2023-04-24T03:30:53;1.40;;;1.30;;
3131;SDS011;62090;52.330;9.104;2023-04-24T03:33:24;2.80;;;1.37;;
3131;SDS011;62090;52.330;9.104;2023-04-24T03:35:59;1.40;;;1.30;;
3131;SDS011;62090;52.330;9.104;2023-04-24T03:38:38;3.37;;;1.50;;
3131;SDS011;62090;52.330;9.104;2023-04-24T03:41:28;2.10;;;1.53;;
3131;SDS011;62090;52.330;9.104;2023-04-24T03:44:22;9.40;;;1.50;;
3131;SDS011;62090;52.330;9.104;2023-04-24T03:46:52;2.23;;;1.50;;
3131;SDS011;62090;52.330;9.104;2023-04-24T03:49:23;1.53;;;1.20;;
3131;SDS011;62090;52.330;9.104;2023-04-24T03:51:53;1.37;;;1.27;;
3131;SDS011;62090;52.330;9.104;2023-04-24T03:54:28;1.40;;;1.20;;
3131;SDS011;62090;52.330;9.104;2023-04-24T03:56:58;1.63;;;1.50;;
3131;SDS011;62090;52.330;9.104;2023-04-24T03:59:31;3.47;;;1.40;;
3131;SDS011;62090;52.330;9.104;2023-04-24T04:02:15;1.63;;;0.83;;
3131;SDS011;62090;52.330;9.104;2023-04-24T04:04:45;1.23;;;1.00;;
3131;SDS011;62090;52.330;9.104;2023-04-24T04:07:15;1.10;;;1.00;;
3131;SDS011;62090;52.330;9.104;2023-04-24T04:09:48;1.93;;;0.90;;
3131;SDS011;62090;52.330;9.104;2023-04-24T04:12:18;1.37;;;1.03;;
3131;SDS011;62090;52.330;9.104;2023-04-24T04:14:47;1.20;;;0.87;;
3131;SDS011;62090;52.330;9.104;2023-04-24T04:17:17;1.37;;;1.07;;
3131;SDS011;62090;52.330;9.104;2023-04-24T04:19:47;1.23;;;1.13;;
3131;SDS011;62090;52.330;9.104;2023-04-24T04:22:17;1.70;;;1.00;;
3131;SDS011;62090;52.330;9.104;2023-04-24T04:24:52;1.93;;;1.20;;
3131;SDS011;62090;52.330;9.104;2023-04-24T04:27:23;4.13;;;1.10;;
3131;SDS011;62090;52.330;9.104;2023-04-24T04:29:59;5.70;;;0.97;;
3131;SDS011;62090;52.330;9.104;2023-04-24T04:32:38;1.63;;;0.90;;
3131;SDS011;62090;52.330;9.104;2023-04-24T04:35:08;1.10;;;1.00;;
3131;SDS011;62090;52.330;9.104;2023-04-24T04:37:39;2.23;;;1.23;;
3131;SDS011;62090;52.330;9.104;2023-04-24T04:40:46;1.33;;;1.23;;
3131;SDS011;62090;52.330;9.104;2023-04-24T04:43:18;3.10;;;1.30;;
3131;SDS011;62090;52.330;9.104;2023-04-24T04:45:51;1.50;;;1.40;;
3131;SDS011;62090;52.330;9.104;2023-04-24T04:48:58;5.20;;;1.50;;
3131;SDS011;62090;52.330;9.104;2023-04-24T04:51:28;3.33;;;1.40;;
3131;SDS011;62090;52.330;9.104;2023-04-24T04:53:58;5.80;;;1.80;;
3131;SDS011;62090;52.330;9.104;2023-04-24T04:56:31;3.23;;;1.20;;
3131;SDS011;62090;52.330;9.104;2023-04-24T04:59:01;4.93;;;1.60;;
3131;SDS011;62090;52.330;9.104;2023-04-24T05:01:35;1.70;;;1.50;;
3131;SDS011;62090;52.330;9.104;2023-04-24T05:04:06;1.60;;;1.40;;
3131;SDS011;62090;52.330;9.104;2023-04-24T05:06:36;1.50;;;1.13;;
3131;SDS011;62090;52.330;9.104;2023-04-24T05:09:07;2.60;;;1.60;;
3131;SDS011;62090;52.330;9.104;2023-04-24T05:11:46;1.73;;;1.40;;
3131;SDS011;62090;52.330;9.104;2023-04-24T05:14:16;1.87;;;1.40;;
3131;SDS011;62090;52.330;9.104;2023-04-24T05:16:48;4.23;;;1.60;;
3131;SDS011;62090;52.330;9.104;2023-04-24T05:19:20;3.03;;;1.40;;
3131;SDS011;62090;52.330;9.104;2023-04-24T05:21:50;2.40;;;1.93;;
3131;SDS011;62090;52.330;9.104;2023-04-24T05:24:19;5.27;;;2.27;;
3131;SDS011;62090;52.330;9.104;2023-04-24T05:27:09;3.20;;;1.60;;
3131;SDS011;62090;52.330;9.104;2023-04-24T05:29:40;4.00;;;1.70;;
3131;SDS011;62090;52.330;9.104;2023-04-24T05:32:10;3.07;;;2.30;;
3131;SDS011;62090;52.330;9.104;2023-04-24T05:34:40;5.43;;;3.03;;
3131;SDS011;62090;52.330;9.104;2023-04-24T05:37:10;7.20;;;4.17;;
3131;SDS011;62090;52.330;9.104;2023-04-24T05:39:40;11.13;;;6.10;;
3131;SDS011;62090;52.330;9.104;2023-04-24T05:42:13;8.80;;;5.03;;
3131;SDS011;62090;52.330;9.104;2023-04-24T05:44:42;5.57;;;3.30;;
3131;SDS011;62090;52.330;9.104;2023-04-24T05:47:12;6.10;;;3.30;;
3131;SDS011;62090;52.330;9.104;2023-04-24T05:49:42;6.97;;;4.20;;
3131;SDS011;62090;52.330;9.104;2023-04-24T05:52:12;5.07;;;4.37;;
3131;SDS011;62090;52.330;9.104;2023-04-24T05:54:42;7.37;;;3.93;;
3131;SDS011;62090;52.330;9.104;2023-04-24T05:57:19;11.97;;;4.60;;
3131;SDS011;62090;52.330;9.104;2023-04-24T05:59:56;7.67;;;5.40;;
3131;SDS011;62090;52.330;9.104;2023-04-24T06:02:26;8.60;;;6.47;;
3131;SDS011;62090;52.330;9.104;2023-04-24T06:04:59;7.33;;;5.90;;
3131;SDS011;62090;52.330;9.104;2023-04-24T06:07:29;7.97;;;6.60;;
3131;SDS011;62090;52.330;9.104;2023-04-24T06:10:03;9.07;;;7.63;;
3131;SDS011;62090;52.330;9.104;2023-04-24T06:12:42;11.17;;;7.37;;
3131;SDS011;62090;52.330;9.104;2023-04-24T06:15:16;9.90;;;7.50;;
3131;SDS011;62090;52.330;9.104;2023-04-24T06:17:52;10.90;;;7.50;;
3131;SDS011;62090;52.330;9.104;2023-04-24T06:20:23;11.40;;;7.60;;
3131;SDS011;62090;52.330;9.104;2023-04-24T06:22:54;11.33;;;8.37;;
3131;SDS011;62090;52.330;9.104;2023-04-24T06:25:29;11.33;;;7.67;;
3131;SDS011;62090;52.330;9.104;2023-04-24T06:28:02;9.40;;;6.87;;
3131;SDS011;62090;52.330;9.104;2023-04-24T06:30:32;11.13;;;7.90;;
3131;SDS011;62090;52.330;9.104;2023-04-24T06:33:02;11.13;;;7.83;;
3131;SDS011;62090;52.330;9.104;2023-04-24T06:35:46;15.57;;;8.87;;
3131;SDS011;62090;52.330;9.104;2023-04-24T06:38:15;11.23;;;8.17;;
3131;SDS011;62090;52.330;9.104;2023-04-24T06:40:45;10.50;;;7.83;;
3131;SDS011;62090;52.330;9.104;2023-04-24T06:43:18;10.97;;;7.50;;
3131;SDS011;62090;52.330;9.104;2023-04-24T06:45:47;11.50;;;7.97;;
3131;SDS011;62090;52.330;9.104;2023-04-24T06:48:17;11.40;;;8.33;;
3131;SDS011;62090;52.330;9.104;2023-04-24T06:50:47;11.50;;;8.83;;
3131;SDS011;62090;52.330;9.104;2023-04-24T06:53:17;13.90;;;8.73;;
3131;SDS011;62090;52.330;9.104;2023-04-24T06:55:56;9.60;;;7.30;;
3131;SDS011;62090;52.330;9.104;2023-04-24T06:58:33;15.80;;;7.97;;
3131;SDS011;62090;52.330;9.104;2023-04-24T07:01:07;12.03;;;8.03;;
3131;SDS011;62090;52.330;9.104;2023-04-24T07:03:37;14.83;;;10.17;;
3131;SDS011;62090;52.330;9.104;2023-04-24T07:06:09;16.87;;;9.90;;
3131;SDS011;62090;52.330;9.104;2023-04-24T07:08:40;15.60;;;10.60;;
3131;SDS011;62090;52.330;9.104;2023-04-24T07:11:11;16.53;;;10.07;;
3131;SDS011;62090;52.330;9.104;2023-04-24T07:13:44;13.50;;;9.97;;
3131;SDS011;62090;52.330;9.104;2023-04-24T07:16:14;16.80;;;11.00;;
3131;SDS011;62090;52.330;9.104;2023-04-24T07:18:45;14.90;;;10.90;;
3131;SDS011;62090;52.330;9.104;2023-04-24T07:21:15;18.73;;;11.27;;
3131;SDS011;62090;52.330;9.104;2023-04-24T07:23:46;18.13;;;11.83;;
3131;SDS011;62090;52.330;9.104;2023-04-24T07:26:16;10.97;;;9.43;;
3131;SDS011;62090;52.330;9.104;2023-04-24T07:28:49;15.60;;;10.57;;
3131;SDS011;62090;52.330;9.104;2023-04-24T07:31:19;12.47;;;10.27;;
3131;SDS011;62090;52.330;9.104;2023-04-24T07:33:49;18.17;;;11.23;;
3131;SDS011;62090;52.330;9.104;2023-04-24T07:36:20;21.63;;;11.50;;
3131;SDS011;62090;52.330;9.104;2023-04-24T07:38:50;12.73;;;10.27;;
3131;SDS011;62090;52.330;9.104;2023-04-24T07:41:20;15.27;;;11.87;;
3131;SDS011;62090;52.330;9.104;2023-04-24T07:43:53;13.80;;;10.50;;
3131;SDS011;62090;52.330;9.104;2023-04-24T07:46:23;15.57;;;11.20;;
3131;SDS011;62090;52.330;9.104;2023-04-24T07:48:56;18.03;;;12.23;;
3131;SDS011;62090;52.330;9.104;2023-04-24T07:51:39;14.90;;;11.23;;
3131;SDS011;62090;52.330;9.104;2023-04-24T07:54:09;14.77;;;11.33;;
3131;SDS011;62090;52.330;9.104;2023-04-24T07:56:38;17.30;;;11.90;;
3131;SDS011;62090;52.330;9.104;2023-04-24T07:59:12;14.90;;;10.73;;
3131;SDS011;62090;52.330;9.104;2023-04-24T08:01:42;15.40;;;11.50;;
3131;SDS011;62090;52.330;9.104;2023-04-24T08:04:12;14.80;;;11.10;;
3131;SDS011;62090;52.330;9.104;2023-04-24T08:06:42;13.60;;;11.47;;
3131;SDS011;62090;52.330;9.104;2023-04-24T08:09:11;15.40;;;11.70;;
3131;SDS011;62090;52.330;9.104;2023-04-24T08:11:41;13.43;;;9.67;;
3131;SDS011;62090;52.330;9.104;2023-04-24T08:14:15;12.90;;;10.03;;
3131;SDS011;62090;52.330;9.104;2023-04-24T08:16:44;15.37;;;10.83;;
3131;SDS011;62090;52.330;9.104;2023-04-24T08:19:14;12.50;;;9.60;;
3131;SDS011;62090;52.330;9.104;2023-04-24T08:21:44;10.53;;;8.57;;
3131;SDS011;62090;52.330;9.104;2023-04-24T08:24:16;18.07;;;9.13;;
3131;SDS011;62090;52.330;9.104;2023-04-24T08:26:46;9.70;;;7.60;;
3131;SDS011;62090;52.330;9.104;2023-04-24T08:29:20;11.20;;;8.10;;
3131;SDS011;62090;52.330;9.104;2023-04-24T08:31:50;15.10;;;8.90;;
3131;SDS011;62090;52.330;9.104;2023-04-24T08:34:21;9.50;;;7.90;;
3131;SDS011;62090;52.330;9.104;2023-04-24T08:36:51;10.87;;;8.87;;
3131;SDS011;62090;52.330;9.104;2023-04-24T08:39:22;9.40;;;8.20;;
3131;SDS011;62090;52.330;9.104;2023-04-24T08:41:53;13.60;;;8.73;;
3131;SDS011;62090;52.330;9.104;2023-04-24T08:44:26;10.53;;;8.00;;
3131;SDS011;62090;52.330;9.104;2023-04-24T08:46:57;9.37;;;7.87;;
3131;SDS011;62090;52.330;9.104;2023-04-24T08:49:27;8.80;;;6.53;;
3131;SDS011;62090;52.330;9.104;2023-04-24T08:51:57;11.30;;;7.90;;
3131;SDS011;62090;52.330;9.104;2023-04-24T08:54:29;9.70;;;7.27;;
3131;SDS011;62090;52.330;9.104;2023-04-24T08:56:59;10.00;;;7.30;;
3131;SDS011;62090;52.330;9.104;2023-04-24T08:59:33;7.80;;;7.00;;
3131;SDS011;62090;52.330;9.104;2023-04-24T09:02:04;7.67;;;6.20;;
3131;SDS011;62090;52.330;9.104;2023-04-24T09:04:34;9.30;;;6.37;;
3131;SDS011;62090;52.330;9.104;2023-04-24T09:07:05;9.63;;;6.30;;
3131;SDS011;62090;52.330;9.104;2023-04-24T09:09:37;8.77;;;5.87;;
3131;SDS011;62090;52.330;9.104;2023-04-24T09:12:08;7.10;;;6.23;;
3131;SDS011;62090;52.330;9.104;2023-04-24T09:14:41;7.90;;;6.13;;
3131;SDS011;62090;52.330;9.104;2023-04-24T09:17:12;8.30;;;5.53;;
3131;SDS011;62090;52.330;9.104;2023-04-24T09:19:42;8.33;;;5.40;;
3131;SDS011;62090;52.330;9.104;2023-04-24T09:22:11;5.90;;;5.30;;
3131;SDS011;62090;52.330;9.104;2023-04-24T09:24:42;7.70;;;5.70;;
3131;SDS011;62090;52.330;9.104;2023-04-24T09:27:11;8.83;;;6.20;;
3131;SDS011;62090;52.330;9.104;2023-04-24T09:29:55;7.43;;;4.93;;
3131;SDS011;62090;52.330;9.104;2023-04-24T09:32:26;5.17;;;4.50;;
3131;SDS011;62090;52.330;9.104;2023-04-24T09:35:08;4.97;;;3.63;;
3131;SDS011;62090;52.330;9.104;2023-04-24T09:37:40;6.80;;;3.33;;
3131;SDS011;62090;52.330;9.104;2023-04-24T09:40:14;6.10;;;3.90;;
3131;SDS011;62090;52.330;9.104;2023-04-24T09:42:46;5.87;;;3.50;;
3131;SDS011;62090;52.330;9.104;2023-04-24T09:45:23;4.50;;;2.50;;
3131;SDS011;62090;52.330;9.104;2023-04-24T09:47:57;4.20;;;3.00;;
3131;SDS011;62090;52.330;9.104;2023-04-24T09:50:29;3.17;;;2.30;;
3131;SDS011;62090;52.330;9.104;2023-04-24T09:53:02;3.50;;;2.37;;
3131;SDS011;62090;52.330;9.104;2023-04-24T09:55:38;2.57;;;2.33;;
3131;SDS011;62090;52.330;9.104;2023-04-24T09:58:09;2.53;;;2.30;;
3131;SDS011;62090;52.330;9.104;2023-04-24T10:00:41;6.80;;;2.30;;
3131;SDS011;62090;52.330;9.104;2023-04-24T10:03:11;3.93;;;2.10;;
3131;SDS011;62090;52.330;9.104;2023-04-24T10:05:41;4.40;;;2.07;;
3131;SDS011;62090;52.330;9.104;2023-04-24T10:08:12;3.87;;;2.20;;
3131;SDS011;62090;52.330;9.104;2023-04-24T10:10:43;3.53;;;1.83;;
3131;SDS011;62090;52.330;9.104;2023-04-24T10:13:14;2.87;;;1.80;;
3131;SDS011;62090;52.330;9.104;2023-04-24T10:15:47;2.30;;;1.97;;
3131;SDS011;62090;52.330;9.104;2023-04-24T10:18:18;1.97;;;1.63;;
3131;SDS011;62090;52.330;9.104;2023-04-24T10:20:50;2.60;;;2.10;;
3131;SDS011;62090;52.330;9.104;2023-04-24T10:23:21;2.13;;;1.93;;
3131;SDS011;62090;52.330;9.104;2023-04-24T10:25:51;2.63;;;2.33;;
3131;SDS011;62090;52.330;9.104;2023-04-24T10:28:22;3.90;;;2.40;;
3131;SDS011;62090;52.330;9.104;2023-04-24T10:30:56;2.70;;;2.30;;
3131;SDS011;62090;52.330;9.104;2023-04-24T10:33:27;3.00;;;2.70;;
3131;SDS011;62090;52.330;9.104;2023-04-24T10:35:59;2.70;;;2.50;;
3131;SDS011;62090;52.330;9.104;2023-04-24T10:38:29;2.10;;;2.00;;
3131;SDS011;62090;52.330;9.104;2023-04-24T10:41:06;1.90;;;1.70;;
3131;SDS011;62090;52.330;9.104;2023-04-24T10:43:42;4.53;;;1.67;;
3131;SDS011;62090;52.330;9.104;2023-04-24T10:46:16;3.40;;;2.20;;
3131;SDS011;62090;52.330;9.104;2023-04-24T10:48:51;2.37;;;1.97;;
3131;SDS011;62090;52.330;9.104;2023-04-24T10:51:23;2.10;;;1.60;;
3131;SDS011;62090;52.330;9.104;2023-04-24T10:53:54;3.23;;;1.70;;
3131;SDS011;62090;52.330;9.104;2023-04-24T10:56:26;3.63;;;1.77;;
3131;SDS011;62090;52.330;9.104;2023-04-24T10:58:56;5.70;;;2.40;;
3131;SDS011;62090;52.330;9.104;2023-04-24T11:01:30;2.63;;;2.00;;
3131;SDS011;62090;52.330;9.104;2023-04-24T11:04:02;4.50;;;2.10;;
3131;SDS011;62090;52.330;9.104;2023-04-24T11:06:33;1.83;;;1.73;;
3131;SDS011;62090;52.330;9.104;2023-04-24T11:09:05;2.40;;;1.77;;
3131;SDS011;62090;52.330;9.104;2023-04-24T11:11:36;2.17;;;1.70;;
3131;SDS011;62090;52.330;9.104;2023-04-24T11:14:07;1.97;;;1.77;;
3131;SDS011;62090;52.330;9.104;2023-04-24T11:16:51;4.80;;;1.53;;
3131;SDS011;62090;52.330;9.104;2023-04-24T11:19:22;1.60;;;1.50;;
3131;SDS011;62090;52.330;9.104;2023-04-24T11:21:58;3.73;;;1.80;;
3131;SDS011;62090;52.330;9.104;2023-04-24T11:24:30;2.17;;;1.90;;
3131;SDS011;62090;52.330;9.104;2023-04-24T11:27:05;1.17;;;1.07;;
3131;SDS011;62090;52.330;9.104;2023-04-24T11:29:40;1.10;;;1.00;;
3131;SDS011;62090;52.330;9.104;2023-04-24T11:32:18;1.13;;;1.00;;
3131;SDS011;62090;52.330;9.104;2023-04-24T11:34:55;7.43;;;1.03;;
3131;SDS011;62090;52.330;9.104;2023-04-24T11:37:27;4.00;;;1.10;;
3131;SDS011;62090;52.330;9.104;2023-04-24T11:39:58;3.63;;;1.87;;
3131;SDS011;62090;52.330;9.104;2023-04-24T11:42:33;5.57;;;2.13;;
3131;SDS011;62090;52.330;9.104;2023-04-24T11:45:07;2.60;;;1.90;;
3131;SDS011;62090;52.330;9.104;2023-04-24T11:47:41;2.30;;;1.93;;
3131;SDS011;62090;52.330;9.104;2023-04-24T11:50:13;4.93;;;1.70;;
3131;SDS011;62090;52.330;9.104;2023-04-24T11:52:44;2.37;;;2.17;;
3131;SDS011;62090;52.330;9.104;2023-04-24T11:55:24;6.00;;;2.23;;
3131;SDS011;62090;52.330;9.104;2023-04-24T11:57:56;1.77;;;1.67;;
3131;SDS011;62090;52.330;9.104;2023-04-24T12:00:28;2.20;;;1.87;;
3131;SDS011;62090;52.330;9.104;2023-04-24T12:03:08;2.43;;;2.23;;
3131;SDS011;62090;52.330;9.104;2023-04-24T12:05:39;2.83;;;2.63;;
3131;SDS011;62090;52.330;9.104;2023-04-24T12:08:10;2.43;;;2.23;;
3131;SDS011;62090;52.330;9.104;2023-04-24T12:10:40;2.67;;;2.47;;
3131;SDS011;62090;52.330;9.104;2023-04-24T12:13:10;3.23;;;2.93;;
3131;SDS011;62090;52.330;9.104;2023-04-24T12:15:40;3.47;;;3.17;;
3131;SDS011;62090;52.330;9.104;2023-04-24T12:18:14;3.30;;;3.00;;
3131;SDS011;62090;52.330;9.104;2023-04-24T12:20:45;3.87;;;3.47;;
3131;SDS011;62090;52.330;9.104;2023-04-24T12:23:14;4.37;;;3.17;;
3131;SDS011;62090;52.330;9.104;2023-04-24T12:25:45;3.73;;;2.80;;
3131;SDS011;62090;52.330;9.104;2023-04-24T12:28:15;3.33;;;3.03;;
3131;SDS011;62090;52.330;9.104;2023-04-24T12:30:46;3.30;;;3.00;;
3131;SDS011;62090;52.330;9.104;2023-04-24T12:33:20;7.40;;;2.50;;
3131;SDS011;62090;52.330;9.104;2023-04-24T12:35:51;3.70;;;3.40;;
3131;SDS011;62090;52.330;9.104;2023-04-24T12:38:22;2.63;;;2.43;;
3131;SDS011;62090;52.330;9.104;2023-04-24T12:41:01;3.20;;;2.30;;
3131;SDS011;62090;52.330;9.104;2023-04-24T12:43:32;3.40;;;2.00;;
3131;SDS011;62090;52.330;9.104;2023-04-24T12:46:02;1.83;;;1.73;;
3131;SDS011;62090;52.330;9.104;2023-04-24T12:48:35;1.70;;;1.60;;
3131;SDS011;62090;52.330;9.104;2023-04-24T12:51:05;1.43;;;1.17;;
3131;SDS011;62090;52.330;9.104;2023-04-24T12:53:35;1.47;;;1.37;;
3131;SDS011;62090;52.330;9.104;2023-04-24T12:56:05;3.50;;;1.63;;
3131;SDS011;62090;52.330;9.104;2023-04-24T12:58:35;1.20;;;1.10;;
3131;SDS011;62090;52.330;9.104;2023-04-24T13:01:05;5.37;;;1.20;;
3131;SDS011;62090;52.330;9.104;2023-04-24T13:03:37;1.90;;;1.30;;
3131;SDS011;62090;52.330;9.104;2023-04-24T13:06:08;2.30;;;1.07;;
3131;SDS011;62090;52.330;9.104;2023-04-24T13:08:38;1.53;;;1.30;;
3131;SDS011;62090;52.330;9.104;2023-04-24T13:11:07;2.90;;;1.50;;
3131;SDS011;62090;52.330;9.104;2023-04-24T13:13:37;6.47;;;1.80;;
3131;SDS011;62090;52.330;9.104;2023-04-24T13:16:07;3.20;;;1.83;;
3131;SDS011;62090;52.330;9.104;2023-04-24T13:18:40;4.87;;;1.70;;
3131;SDS011;62090;52.330;9.104;2023-04-24T13:21:09;4.27;;;1.40;;
3131;SDS011;62090;52.330;9.104;2023-04-24T13:23:39;6.10;;;1.80;;
3131;SDS011;62090;52.330;9.104;2023-04-24T13:26:10;3.47;;;1.73;;
3131;SDS011;62090;52.330;9.104;2023-04-24T13:28:40;8.07;;;2.90;;
3131;SDS011;62090;52.330;9.104;2023-04-24T13:31:09;4.37;;;2.30;;
3131;SDS011;62090;52.330;9.104;2023-04-24T13:33:42;5.30;;;3.00;;
3131;SDS011;62090;52.330;9.104;2023-04-24T13:36:12;4.90;;;3.10;;
3131;SDS011;62090;52.330;9.104;2023-04-24T13:38:43;2.73;;;2.50;;
3131;SDS011;62090;52.330;9.104;2023-04-24T13:41:13;4.50;;;2.90;;
3131;SDS011;62090;52.330;9.104;2023-04-24T13:43:43;7.30;;;4.10;;
3131;SDS011;62090;52.330;9.104;2023-04-24T13:46:13;4.10;;;3.70;;
3131;SDS011;62090;52.330;9.104;2023-04-24T13:48:45;5.17;;;3.97;;
3131;SDS011;62090;52.330;9.104;2023-04-24T13:51:15;8.07;;;4.27;;
3131;SDS011;62090;52.330;9.104;2023-04-24T13:53:45;6.07;;;3.50;;
3131;SDS011;62090;52.330;9.104;2023-04-24T13:56:15;8.93;;;4.23;;
3131;SDS011;62090;52.330;9.104;2023-04-24T13:58:45;9.00;;;3.43;;
3131;SDS011;62090;52.330;9.104;2023-04-24T14:01:14;8.63;;;4.20;;
3131;SDS011;62090;52.330;9.104;2023-04-24T14:03:47;11.47;;;4.00;;
3131;SDS011;62090;52.330;9.104;2023-04-24T14:06:17;8.80;;;3.70;;
3131;SDS011;62090;52.330;9.104;2023-04-24T14:08:47;8.30;;;3.47;;
3131;SDS011;62090;52.330;9.104;2023-04-24T14:11:17;9.20;;;4.30;;
3131;SDS011;62090;52.330;9.104;2023-04-24T14:13:48;6.03;;;3.80;;
3131;SDS011;62090;52.330;9.104;2023-04-24T14:16:19;5.23;;;4.00;;
3131;SDS011;62090;52.330;9.104;2023-04-24T14:18:51;8.03;;;4.67;;
3131;SDS011;62090;52.330;9.104;2023-04-24T14:21:21;6.43;;;4.10;;
3131;SDS011;62090;52.330;9.104;2023-04-24T14:23:51;10.07;;;4.87;;
3131;SDS011;62090;52.330;9.104;2023-04-24T14:26:21;13.10;;;6.00;;
3131;SDS011;62090;52.330;9.104;2023-04-24T14:28:51;9.73;;;5.37;;
3131;SDS011;62090;52.330;9.104;2023-04-24T14:31:36;9.23;;;4.80;;
3131;SDS011;62090;52.330;9.104;2023-04-24T14:34:09;18.10;;;5.53;;
3131;SDS011;62090;52.330;9.104;2023-04-24T14:36:39;12.30;;;5.20;;
3131;SDS011;62090;52.330;9.104;2023-04-24T14:39:08;10.20;;;4.83;;
3131;SDS011;62090;52.330;9.104;2023-04-24T14:41:39;11.90;;;5.30;;
3131;SDS011;62090;52.330;9.104;2023-04-24T14:44:08;12.90;;;5.87;;
3131;SDS011;62090;52.330;9.104;2023-04-24T14:46:38;16.70;;;5.97;;
3131;SDS011;62090;52.330;9.104;2023-04-24T14:49:11;13.37;;;5.60;;
3131;SDS011;62090;52.330;9.104;2023-04-24T14:51:41;11.17;;;5.23;;
3131;SDS011;62090;52.330;9.104;2023-04-24T14:54:10;11.10;;;5.43;;
3131;SDS011;62090;52.330;9.104;2023-04-24T14:56:40;19.30;;;8.67;;
3131;SDS011;62090;52.330;9.104;2023-04-24T14:59:10;16.20;;;8.27;;
3131;SDS011;62090;52.330;9.104;2023-04-24T15:01:40;12.80;;;7.80;;
3131;SDS011;62090;52.330;9.104;2023-04-24T15:04:13;16.70;;;8.87;;
3131;SDS011;62090;52.330;9.104;2023-04-24T15:06:43;15.80;;;7.77;;
3131;SDS011;62090;52.330;9.104;2023-04-24T15:09:12;14.63;;;7.67;;
3131;SDS011;62090;52.330;9.104;2023-04-24T15:11:42;16.70;;;7.70;;
3131;SDS011;62090;52.330;9.104;2023-04-24T15:14:12;15.83;;;8.90;;
3131;SDS011;62090;52.330;9.104;2023-04-24T15:16:42;15.37;;;7.80;;
3131;SDS011;62090;52.330;9.104;2023-04-24T15:19:15;11.80;;;7.37;;
3131;SDS011;62090;52.330;9.104;2023-04-24T15:21:44;13.00;;;7.40;;
3131;SDS011;62090;52.330;9.104;2023-04-24T15:24:14;22.70;;;8.00;;
3131;SDS011;62090;52.330;9.104;2023-04-24T15:26:44;14.50;;;7.47;;